createdAt,value
2022-11-07T00:01:13.796Z,10.25
2022-11-07T00:03:40.619Z,10.12
2022-11-07T00:21:22.226Z,10.34
2022-11-07T00:23:48.932Z,10.30
2022-11-07T00:26:15.609Z,10.24
2022-11-07T00:28:43.655Z,10.31
2022-11-07T00:31:12.901Z,10.22
2022-11-07T00:33:40.342Z,10.28
2022-11-07T00:36:07.764Z,10.29
2022-11-07T00:38:34.375Z,10.17
2022-11-07T00:41:06.477Z,10.19
2022-11-07T00:43:33.625Z,10.22
2022-11-07T00:46:04.643Z,10.27
2022-11-07T00:48:32.176Z,10.21
2022-11-07T00:51:12.377Z,9.87
2022-11-07T00:53:39.821Z,10.20
2022-11-07T00:56:12.216Z,10.22
2022-11-07T00:58:39.929Z,9.92
2022-11-07T01:01:12.309Z,9.61
2022-11-07T01:03:59.010Z,10.04
2022-11-07T01:06:28.611Z,10.25
2022-11-07T01:08:56.552Z,9.88
2022-11-07T01:11:25.163Z,9.92
2022-11-07T01:13:55.869Z,10.09
2022-11-07T01:16:22.664Z,10.14
2022-11-07T01:18:49.609Z,10.40
2022-11-07T01:21:16.756Z,10.11
2022-11-07T01:23:43.812Z,10.05
2022-11-07T01:26:12.253Z,10.20
2022-11-07T01:28:39.222Z,10.03
2022-11-07T01:31:07.611Z,10.32
2022-11-07T01:33:34.567Z,10.41
2022-11-07T01:36:06.102Z,9.91
2022-11-07T01:38:32.952Z,10.24
2022-11-07T01:41:18.245Z,10.40
2022-11-07T01:43:50.915Z,10.50
2022-11-07T01:46:18.775Z,10.55
2022-11-07T01:48:51.865Z,10.56
2022-11-07T01:51:22.676Z,10.53
2022-11-07T01:53:51.102Z,10.40
2022-11-07T01:56:22.292Z,10.23
2022-11-07T01:58:48.960Z,10.07
2022-11-07T02:01:17.193Z,10.12
2022-11-07T02:03:44.387Z,10.23
2022-11-07T02:06:17.990Z,10.25
2022-11-07T02:08:46.482Z,10.41
2022-11-07T02:11:13.907Z,10.41
2022-11-07T02:13:40.552Z,10.46
2022-11-07T02:16:07.373Z,10.31
2022-11-07T02:18:36.953Z,10.29
2022-11-07T02:21:12.451Z,10.41
2022-11-07T02:23:48.517Z,10.17
2022-11-07T02:26:15.660Z,10.31
2022-11-07T02:28:43.375Z,10.39
2022-11-07T02:31:10.060Z,10.35
2022-11-07T02:33:36.696Z,10.14
2022-11-07T02:36:03.543Z,9.94
2022-11-07T02:38:36.637Z,10.10
2022-11-07T02:41:08.204Z,10.03
2022-11-07T02:43:37.912Z,9.81
2022-11-07T02:46:09.834Z,9.84
2022-11-07T02:48:49.655Z,9.90
2022-11-07T02:51:17.028Z,9.54
2022-11-07T02:53:43.799Z,9.18
2022-11-07T02:56:10.945Z,9.17
2022-11-07T02:58:37.801Z,9.57
2022-11-07T03:01:08.424Z,9.62
2022-11-07T03:03:36.843Z,9.72
2022-11-07T03:06:03.516Z,9.79
2022-11-07T03:08:30.112Z,8.99
2022-11-07T03:10:56.903Z,9.05
2022-11-07T03:13:23.705Z,9.52
2022-11-07T03:15:51.532Z,9.37
2022-11-07T03:18:18.684Z,9.55
2022-11-07T03:20:45.711Z,9.47
2022-11-07T03:23:12.695Z,9.37
2022-11-07T03:25:39.552Z,9.42
2022-11-07T03:28:06.079Z,9.43
2022-11-07T03:30:32.722Z,9.33
2022-11-07T03:32:59.848Z,9.19
2022-11-07T03:35:27.820Z,9.36
2022-11-07T03:37:54.765Z,9.67
2022-11-07T03:40:21.311Z,9.22
2022-11-07T03:42:47.926Z,9.50
2022-11-07T03:45:16.102Z,9.07
2022-11-07T03:47:44.080Z,9.42
2022-11-07T03:50:14.489Z,9.43
2022-11-07T03:52:41.043Z,9.06
2022-11-07T03:55:11.459Z,9.56
2022-11-07T03:57:38.750Z,9.57
2022-11-07T04:00:06.360Z,9.02
2022-11-07T04:02:38.724Z,8.91
2022-11-07T04:05:05.886Z,8.84
2022-11-07T04:07:32.456Z,8.87
2022-11-07T04:09:59.104Z,9.22
2022-11-07T04:12:44.189Z,8.91
2022-11-07T04:15:30.167Z,8.92
2022-11-07T04:17:56.786Z,9.17
2022-11-07T04:20:23.405Z,8.92
2022-11-07T04:22:50.076Z,9.24
2022-11-07T04:25:16.640Z,9.31
2022-11-07T04:27:43.227Z,9.34
2022-11-07T04:30:24.386Z,9.15
2022-11-07T04:32:56.066Z,9.05
2022-11-07T04:35:28.387Z,9.08
2022-11-07T04:37:55.355Z,9.26
2022-11-07T04:40:22.342Z,9.27
2022-11-07T04:42:49.696Z,9.43
2022-11-07T04:45:17.220Z,9.59
2022-11-07T04:47:44.108Z,9.43
2022-11-07T04:50:12.727Z,9.31
2022-11-07T04:52:39.603Z,9.24
2022-11-07T04:55:08.405Z,9.00
2022-11-07T04:57:35.042Z,9.05
2022-11-07T05:00:05.254Z,9.09
2022-11-07T05:02:32.041Z,9.08
2022-11-07T05:04:58.821Z,8.94
2022-11-07T05:07:31.323Z,9.07
2022-11-07T05:09:57.855Z,8.94
2022-11-07T05:12:24.445Z,9.16
2022-11-07T05:14:50.988Z,9.28
2022-11-07T05:17:17.663Z,9.39
2022-11-07T05:19:44.444Z,9.03
2022-11-07T05:22:29.967Z,9.23
2022-11-07T05:24:56.589Z,9.22
2022-11-07T05:27:23.809Z,9.24
2022-11-07T05:29:51.038Z,9.36
2022-11-07T05:32:18.173Z,9.32
2022-11-07T05:34:44.728Z,9.41
2022-11-07T05:37:12.801Z,9.49
2022-11-07T05:39:39.745Z,9.58
2022-11-07T05:42:06.588Z,9.65
2022-11-07T05:44:33.560Z,9.73
2022-11-07T05:47:00.866Z,9.69
2022-11-07T05:49:27.379Z,9.67
2022-11-07T05:51:54.035Z,9.57
2022-11-07T05:54:20.870Z,9.61
2022-11-07T05:56:47.438Z,10.18
2022-11-07T05:59:15.050Z,9.58
2022-11-07T06:01:41.972Z,9.73
2022-11-07T06:04:08.832Z,9.57
2022-11-07T06:06:35.482Z,9.82
2022-11-07T06:09:02.060Z,10.10
2022-11-07T06:11:28.751Z,9.63
2022-11-07T06:13:55.333Z,9.59
2022-11-07T06:16:21.889Z,9.49
2022-11-07T06:18:48.686Z,9.61
2022-11-07T06:21:16.804Z,9.81
2022-11-07T06:23:43.625Z,9.72
2022-11-07T06:26:10.755Z,9.94
2022-11-07T06:28:37.723Z,9.78
2022-11-07T06:31:05.003Z,9.79
2022-11-07T06:33:31.847Z,10.06
2022-11-07T06:36:09.753Z,10.01
2022-11-07T06:38:37.565Z,10.09
2022-11-07T06:41:12.775Z,9.98
2022-11-07T06:43:39.762Z,10.21
2022-11-07T06:46:09.452Z,10.11
2022-11-07T06:48:36.353Z,9.98
2022-11-07T06:51:05.577Z,10.26
2022-11-07T06:53:32.878Z,10.28
2022-11-07T06:56:00.456Z,9.95
2022-11-07T06:58:27.129Z,9.98
2022-11-07T07:00:54.133Z,10.03
2022-11-07T07:03:20.736Z,9.89
2022-11-07T07:05:47.305Z,9.92
2022-11-07T07:08:14.885Z,10.08
2022-11-07T07:10:44.385Z,10.04
2022-11-07T07:13:12.884Z,9.95
2022-11-07T07:15:50.393Z,10.02
2022-11-07T07:18:18.964Z,10.05
2022-11-07T07:20:53.978Z,10.18
2022-11-07T07:23:23.832Z,10.08
2022-11-07T07:25:52.728Z,10.10
2022-11-07T07:28:20.769Z,10.11
2022-11-07T07:30:51.539Z,10.04
2022-11-07T07:33:18.998Z,10.33
2022-11-07T07:35:46.011Z,10.32
2022-11-07T07:38:12.704Z,10.19
2022-11-07T07:40:39.415Z,10.51
2022-11-07T07:43:09.021Z,10.35
2022-11-07T07:45:35.631Z,10.21
2022-11-07T07:48:02.535Z,10.26
2022-11-07T07:50:29.343Z,10.25
2022-11-07T07:52:57.904Z,10.40
2022-11-07T07:55:24.673Z,10.18
2022-11-07T07:57:51.441Z,10.26
2022-11-07T08:00:18.253Z,10.26
2022-11-07T08:02:44.918Z,10.20
2022-11-07T08:05:13.428Z,10.62
2022-11-07T08:07:50.837Z,10.22
2022-11-07T08:13:05.665Z,10.39
2022-11-07T08:15:32.359Z,10.35
2022-11-07T08:18:02.103Z,10.17
2022-11-07T08:20:28.722Z,10.75
2022-11-07T08:23:03.774Z,10.62
2022-11-07T08:25:30.894Z,10.56
2022-11-07T08:27:57.767Z,10.71
2022-11-07T08:30:24.623Z,10.37
2022-11-07T08:32:51.315Z,10.33
2022-11-07T08:35:17.915Z,10.78
2022-11-07T08:37:47.381Z,11.08
2022-11-07T08:40:19.146Z,10.76
2022-11-07T08:42:45.892Z,11.22
2022-11-07T08:45:12.462Z,10.57
2022-11-07T08:47:39.093Z,10.87
2022-11-07T08:50:08.107Z,11.13
2022-11-07T08:52:36.159Z,10.71
2022-11-07T08:55:04.265Z,11.32
2022-11-07T08:57:30.863Z,11.35
2022-11-07T08:59:57.710Z,11.44
2022-11-07T09:05:11.304Z,10.91
2022-11-07T09:07:39.706Z,11.33
2022-11-07T09:10:06.926Z,11.37
2022-11-07T09:12:36.093Z,11.23
2022-11-07T09:15:03.719Z,11.50
2022-11-07T09:17:33.363Z,10.97
2022-11-07T09:20:02.631Z,11.00
2022-11-07T09:22:29.272Z,11.36
2022-11-07T09:24:56.034Z,10.99
2022-11-07T09:27:25.557Z,11.15
2022-11-07T09:29:52.743Z,11.09
2022-11-07T09:32:43.164Z,11.58
2022-11-07T09:35:06.831Z,11.47
2022-11-07T09:37:33.419Z,11.17
2022-11-07T09:40:00.165Z,11.40
2022-11-07T09:42:44.998Z,11.14
2022-11-07T09:45:13.350Z,11.61
2022-11-07T09:47:39.941Z,11.56
2022-11-07T09:50:18.147Z,11.32
2022-11-07T09:53:07.824Z,11.65
2022-11-07T09:55:38.376Z,11.43
2022-11-07T09:58:25.149Z,11.47
2022-11-07T10:00:53.963Z,11.71
2022-11-07T10:03:20.572Z,11.85
2022-11-07T10:06:02.746Z,11.69
2022-11-07T10:08:38.573Z,11.79
2022-11-07T10:11:28.206Z,11.82
2022-11-07T10:14:02.797Z,11.80
2022-11-07T10:16:38.111Z,11.72
2022-11-07T10:19:29.771Z,11.88
2022-11-07T10:22:05.930Z,11.62
2022-11-07T10:25:19.305Z,11.45
2022-11-07T10:27:54.037Z,11.42
2022-11-07T10:30:25.528Z,11.06
2022-11-07T10:33:17.205Z,10.81
2022-11-07T10:35:49.046Z,10.84
2022-11-07T10:38:28.248Z,10.79
2022-11-07T10:40:55.496Z,11.16
2022-11-07T10:43:38.789Z,11.18
2022-11-07T10:46:18.909Z,11.59
2022-11-07T10:49:17.729Z,11.65
2022-11-07T10:51:48.912Z,11.91
2022-11-07T10:54:22.048Z,11.75
2022-11-07T10:56:56.393Z,12.03
2022-11-07T10:59:35.662Z,11.90
2022-11-07T11:02:43.918Z,12.28
2022-11-07T11:05:50.219Z,12.34
2022-11-07T11:08:20.296Z,11.96
2022-11-07T11:10:48.699Z,12.07
2022-11-07T11:13:34.219Z,12.05
2022-11-07T11:16:37.574Z,11.74
2022-11-07T11:19:05.648Z,11.72
2022-11-07T11:21:44.290Z,11.70
2022-11-07T11:24:23.251Z,11.93
2022-11-07T11:26:52.442Z,11.70
2022-11-07T11:29:39.166Z,11.36
2022-11-07T11:32:46.514Z,11.60
2022-11-07T11:35:31.934Z,11.54
2022-11-07T11:38:21.642Z,11.88
2022-11-07T11:41:21.366Z,11.96
2022-11-07T11:43:57.408Z,12.17
2022-11-07T11:46:33.538Z,11.93
2022-11-07T11:49:15.284Z,12.43
2022-11-07T11:51:55.060Z,11.99
2022-11-07T11:54:22.125Z,12.01
2022-11-07T11:56:55.836Z,11.81
2022-11-07T11:59:37.284Z,12.44
2022-11-07T12:02:13.037Z,12.03
2022-11-07T12:04:58.023Z,11.86
2022-11-07T12:08:14.418Z,12.01
2022-11-07T12:10:55.561Z,11.97
2022-11-07T12:13:47.621Z,11.89
2022-11-07T12:16:30.515Z,11.65
2022-11-07T12:19:32.746Z,12.27
2022-11-07T12:22:14.771Z,12.16
2022-11-07T12:24:52.788Z,12.10
2022-11-07T12:27:28.478Z,12.11
2022-11-07T12:30:18.612Z,11.90
2022-11-07T12:33:02.609Z,11.97
2022-11-07T12:35:47.422Z,12.04
2022-11-07T12:38:14.498Z,11.92
2022-11-07T12:41:06.605Z,11.67
2022-11-07T12:43:42.140Z,11.78
2022-11-07T12:46:43.834Z,11.62
2022-11-07T12:49:31.384Z,11.82
2022-11-07T12:52:17.619Z,12.05
2022-11-07T12:54:51.572Z,12.10
2022-11-07T12:57:25.253Z,11.84
2022-11-07T13:00:06.841Z,11.94
2022-11-07T13:03:12.420Z,11.89
2022-11-07T13:06:18.486Z,12.14
2022-11-07T13:08:57.437Z,12.02
2022-11-07T13:11:55.404Z,13.31
2022-11-07T13:14:37.164Z,12.81
2022-11-07T13:17:30.969Z,12.40
2022-11-07T13:19:59.294Z,12.47
2022-11-07T13:22:32.271Z,12.34
2022-11-07T13:25:06.138Z,12.68
2022-11-07T13:27:40.043Z,12.41
2022-11-07T13:30:15.563Z,12.25
2022-11-07T13:32:48.245Z,12.18
2022-11-07T13:35:35.321Z,12.05
2022-11-07T13:38:24.317Z,11.83
2022-11-07T13:40:52.685Z,12.28
2022-11-07T13:43:46.145Z,12.24
2022-11-07T13:46:29.751Z,11.72
2022-11-07T13:49:01.784Z,11.84
2022-11-07T13:51:37.366Z,11.75
2022-11-07T13:54:31.504Z,11.83
2022-11-07T13:57:23.368Z,11.92
2022-11-07T13:59:58.939Z,11.82
2022-11-07T14:02:28.376Z,12.10
2022-11-07T14:05:16.911Z,12.06
2022-11-07T14:07:49.394Z,11.85
2022-11-07T14:10:21.502Z,11.69
2022-11-07T14:12:48.831Z,11.84
2022-11-07T14:15:17.349Z,11.78
2022-11-07T14:17:46.207Z,11.74
2022-11-07T14:20:15.518Z,11.27
2022-11-07T14:22:52.918Z,11.65
2022-11-07T14:25:24.718Z,11.68
2022-11-07T14:27:51.505Z,11.71
2022-11-07T14:30:20.601Z,11.59
2022-11-07T14:32:52.922Z,11.70
2022-11-07T14:35:28.745Z,11.43
2022-11-07T14:37:57.396Z,11.48
2022-11-07T14:40:25.590Z,11.65
2022-11-07T14:42:54.582Z,11.86
2022-11-07T14:45:56.558Z,11.65
2022-11-07T14:48:13.016Z,11.48
2022-11-07T14:50:44.537Z,11.66
2022-11-07T14:53:17.029Z,11.95
2022-11-07T14:55:49.598Z,11.52
2022-11-07T14:58:19.583Z,11.68
2022-11-07T15:00:58.486Z,11.53
2022-11-07T15:03:34.196Z,11.51
2022-11-07T15:06:01.154Z,11.50
2022-11-07T15:08:34.549Z,11.49
2022-11-07T15:11:01.126Z,11.67
2022-11-07T15:13:32.964Z,11.76
2022-11-07T15:16:07.884Z,11.71
2022-11-07T15:18:39.737Z,11.52
2022-11-07T15:21:06.984Z,11.89
2022-11-07T15:23:35.388Z,11.67
2022-11-07T15:26:07.979Z,11.94
2022-11-07T15:28:49.399Z,11.44
2022-11-07T15:31:26.176Z,11.56
2022-11-07T15:33:53.894Z,11.82
2022-11-07T15:36:21.606Z,11.46
2022-11-07T15:38:49.724Z,11.81
2022-11-07T15:41:16.686Z,11.51
2022-11-07T15:43:43.745Z,11.72
2022-11-07T15:46:39.211Z,11.44
2022-11-07T15:49:09.659Z,11.44
2022-11-07T15:51:36.328Z,11.19
2022-11-07T15:54:10.456Z,11.23
2022-11-07T15:56:37.340Z,11.14
2022-11-07T15:59:05.540Z,11.09
2022-11-07T16:01:32.302Z,11.29
2022-11-07T16:03:59.105Z,11.32
2022-11-07T16:06:31.289Z,11.59
2022-11-07T16:08:58.216Z,11.67
2022-11-07T16:11:24.921Z,11.51
2022-11-07T16:13:59.290Z,11.41
2022-11-07T16:16:36.813Z,10.30
2022-11-07T16:19:03.781Z,10.61
2022-11-07T16:21:30.777Z,10.57
2022-11-07T16:23:57.933Z,10.40
2022-11-07T16:26:28.886Z,10.48
2022-11-07T16:28:56.245Z,10.58
2022-11-07T16:31:22.940Z,10.73
2022-11-07T16:33:49.644Z,10.56
2022-11-07T16:36:30.245Z,10.81
2022-11-07T16:38:57.001Z,10.84
2022-11-07T16:41:23.599Z,10.74
2022-11-07T16:43:50.279Z,10.86
2022-11-07T16:46:20.138Z,10.93
2022-11-07T16:48:51.349Z,11.17
2022-11-07T16:51:20.289Z,11.07
2022-11-07T16:53:49.364Z,10.92
2022-11-07T16:56:29.285Z,10.97
2022-11-07T16:58:56.756Z,11.15
2022-11-07T17:01:24.893Z,11.10
2022-11-07T17:03:52.313Z,11.42
2022-11-07T17:06:33.512Z,11.14
2022-11-07T17:09:10.311Z,10.94
2022-11-07T17:11:39.893Z,10.88
2022-11-07T17:14:06.500Z,11.27
2022-11-07T17:16:36.576Z,11.21
2022-11-07T17:19:06.524Z,10.91
2022-11-07T17:21:37.847Z,10.84
2022-11-07T17:24:04.762Z,10.85
2022-11-07T17:26:35.164Z,10.83
2022-11-07T17:29:02.679Z,10.92
2022-11-07T17:31:29.240Z,11.13
2022-11-07T17:33:56.028Z,10.91
2022-11-07T17:36:36.374Z,10.98
2022-11-07T17:39:11.743Z,10.94
2022-11-07T17:41:40.538Z,10.96
2022-11-07T17:44:07.605Z,11.05
2022-11-07T17:46:36.183Z,11.19
2022-11-07T17:49:06.998Z,11.31
2022-11-07T17:51:36.000Z,11.25
2022-11-07T17:54:03.147Z,11.39
2022-11-07T17:56:31.360Z,11.16
2022-11-07T17:59:00.302Z,11.44
2022-11-07T18:01:30.461Z,10.98
2022-11-07T18:03:57.977Z,11.31
2022-11-07T18:06:25.841Z,11.33
2022-11-07T18:08:54.819Z,11.30
2022-11-07T18:11:27.767Z,11.48
2022-11-07T18:13:55.756Z,11.24
2022-11-07T18:16:33.956Z,11.02
2022-11-07T18:19:01.952Z,11.37
2022-11-07T18:21:28.982Z,11.57
2022-11-07T18:23:57.280Z,11.67
2022-11-07T18:26:30.493Z,11.23
2022-11-07T18:29:04.958Z,11.27
2022-11-07T18:31:35.896Z,11.18
2022-11-07T18:34:07.800Z,11.18
2022-11-07T18:36:39.965Z,11.48
2022-11-07T18:39:22.581Z,11.70
2022-11-07T18:41:50.691Z,11.61
2022-11-07T18:44:17.458Z,11.16
2022-11-07T18:46:44.601Z,11.02
2022-11-07T18:49:14.191Z,10.92
2022-11-07T18:51:42.902Z,11.47
2022-11-07T18:54:10.655Z,10.96
2022-11-07T18:56:39.795Z,11.03
2022-11-07T18:59:06.577Z,11.43
2022-11-07T19:01:37.181Z,11.52
2022-11-07T19:04:08.299Z,11.21
2022-11-07T19:06:35.383Z,11.03
2022-11-07T19:09:02.918Z,11.16
2022-11-07T19:11:31.922Z,11.20
2022-11-07T19:14:02.942Z,11.57
2022-11-07T19:16:30.065Z,11.40
2022-11-07T19:18:58.985Z,11.22
2022-11-07T19:21:25.846Z,11.29
2022-11-07T19:23:52.450Z,11.33
2022-11-07T19:26:19.345Z,11.08
2022-11-07T19:28:46.273Z,10.98
2022-11-07T19:31:13.748Z,11.21
2022-11-07T19:33:43.898Z,11.26
2022-11-07T19:36:20.154Z,11.05
2022-11-07T19:38:48.026Z,11.51
2022-11-07T19:41:16.152Z,11.34
2022-11-07T19:43:44.693Z,11.12
2022-11-07T19:46:15.291Z,11.10
2022-11-07T19:48:44.529Z,11.18
2022-11-07T19:51:21.252Z,11.56
2022-11-07T19:53:59.968Z,11.63
2022-11-07T19:56:29.884Z,11.51
2022-11-07T19:58:56.940Z,11.31
2022-11-07T20:01:27.964Z,11.29
2022-11-07T20:03:58.334Z,11.12
2022-11-07T20:06:30.309Z,11.18
2022-11-07T20:08:57.421Z,11.10
2022-11-07T20:11:26.073Z,11.17
2022-11-07T20:14:02.766Z,11.18
2022-11-07T20:16:34.298Z,11.30
2022-11-07T20:19:01.461Z,10.96
2022-11-07T20:21:29.328Z,11.10
2022-11-07T20:24:00.615Z,10.96
2022-11-07T20:26:32.328Z,11.06
2022-11-07T20:29:01.923Z,11.04
2022-11-07T20:31:32.710Z,10.91
2022-11-07T20:34:01.600Z,11.17
2022-11-07T20:36:31.602Z,11.09
2022-11-07T20:39:00.877Z,11.33
2022-11-07T20:41:28.439Z,11.32
2022-11-07T20:44:15.375Z,11.54
2022-11-07T20:46:44.907Z,11.41
2022-11-07T20:49:15.949Z,11.23
2022-11-07T20:51:43.823Z,11.51
2022-11-07T20:54:15.271Z,11.55
2022-11-07T20:56:43.586Z,11.43
2022-11-07T20:59:10.712Z,11.52
2022-11-07T21:01:37.760Z,11.38
2022-11-07T21:04:06.460Z,11.48
2022-11-07T21:06:34.402Z,11.50
2022-11-07T21:09:01.065Z,11.75
2022-11-07T21:11:29.406Z,11.85
2022-11-07T21:13:56.695Z,11.84
2022-11-07T21:16:24.113Z,11.67
2022-11-07T21:18:51.877Z,11.58
2022-11-07T21:21:23.987Z,11.99
2022-11-07T21:23:51.606Z,11.53
2022-11-07T21:26:23.863Z,11.36
2022-11-07T21:28:50.647Z,11.49
2022-11-07T21:31:23.547Z,11.47
2022-11-07T21:33:51.494Z,11.67
2022-11-07T21:36:21.155Z,11.59
2022-11-07T21:38:47.918Z,11.53
2022-11-07T21:41:15.511Z,11.62
2022-11-07T21:43:42.518Z,11.52
2022-11-07T21:46:13.535Z,11.36
2022-11-07T21:48:41.139Z,11.35
2022-11-07T21:51:14.939Z,11.68
2022-11-07T21:53:41.818Z,11.85
2022-11-07T21:56:12.576Z,11.61
2022-11-07T21:58:42.697Z,11.35
2022-11-07T22:01:09.560Z,11.22
2022-11-07T22:04:06.352Z,11.37
2022-11-07T22:06:22.985Z,11.53
2022-11-07T22:08:51.596Z,11.46
2022-11-07T22:11:18.541Z,11.70
2022-11-07T22:13:45.232Z,11.53
2022-11-07T22:16:17.738Z,11.24
2022-11-07T22:18:44.651Z,11.47
2022-11-07T22:21:17.273Z,11.82
2022-11-07T22:23:44.270Z,11.80
2022-11-07T22:26:13.473Z,11.82
2022-11-07T22:28:45.558Z,11.75
2022-11-07T22:31:20.544Z,11.83
2022-11-07T22:33:47.740Z,11.75
2022-11-07T22:36:14.882Z,11.90
2022-11-07T22:38:42.117Z,11.78
2022-11-07T22:41:13.954Z,11.89
2022-11-07T22:43:40.813Z,11.56
2022-11-07T22:46:10.508Z,12.00
2022-11-07T22:48:38.558Z,11.61
2022-11-07T22:51:06.841Z,11.46
2022-11-07T22:53:34.398Z,11.82
2022-11-07T22:56:13.019Z,11.78
2022-11-07T22:58:40.530Z,11.79
2022-11-07T23:01:22.378Z,11.58
2022-11-07T23:03:49.417Z,11.72
2022-11-07T23:06:16.995Z,11.80
2022-11-07T23:08:44.163Z,11.85
2022-11-07T23:11:45.382Z,11.87
2022-11-07T23:14:09.993Z,11.80
2022-11-07T23:16:44.224Z,11.89
2022-11-07T23:19:20.107Z,12.17
2022-11-07T23:21:47.010Z,12.00
2022-11-07T23:24:14.157Z,12.13
2022-11-07T23:26:41.062Z,12.02
2022-11-07T23:29:17.951Z,11.98
2022-11-07T23:31:50.313Z,12.25
2022-11-07T23:34:18.086Z,12.50
2022-11-07T23:36:48.352Z,12.25
2022-11-07T23:39:20.669Z,12.07
2022-11-07T23:41:50.413Z,12.21
2022-11-07T23:44:20.814Z,12.13
2022-11-07T23:47:11.214Z,11.67
2022-11-07T23:49:59.080Z,12.11
2022-11-07T23:52:25.813Z,12.18
2022-11-07T23:55:13.120Z,12.14
2022-11-07T23:57:58.272Z,11.98
